createdAt,value
2018-11-14T00:01:10.016Z,4.72
2018-11-14T00:03:39.697Z,4.80
2018-11-14T00:06:09.032Z,4.90
2018-11-14T00:08:42.683Z,6.60
2018-11-14T00:11:15.953Z,4.53
2018-11-14T00:13:46.282Z,4.80
2018-11-14T00:16:15.453Z,4.12
2018-11-14T00:18:47.179Z,8.45
2018-11-14T00:21:16.733Z,10.35
2018-11-14T00:23:45.246Z,6.17
2018-11-14T00:26:13.762Z,6.53
2018-11-14T00:28:42.651Z,6.42
2018-11-14T00:31:16.699Z,14.20
2018-11-14T00:33:49.243Z,6.12
2018-11-14T00:37:00.245Z,7.20
2018-11-14T00:39:30.300Z,7.78
2018-11-14T00:42:03.370Z,5.28
2018-11-14T00:44:34.576Z,4.40
2018-11-14T00:47:05.501Z,6.15
2018-11-14T00:49:38.516Z,6.60
2018-11-14T00:52:08.786Z,7.00
2018-11-14T00:54:42.507Z,6.33
2018-11-14T00:57:13.056Z,7.40
2018-11-14T00:59:41.856Z,6.25
2018-11-14T01:02:15.419Z,5.35
2018-11-14T01:04:45.415Z,5.10
2018-11-14T01:07:14.961Z,7.35
2018-11-14T01:09:44.886Z,6.72
2018-11-14T01:12:14.227Z,5.00
2018-11-14T01:14:43.760Z,6.33
2018-11-14T01:17:11.996Z,6.45
2018-11-14T01:19:40.145Z,5.03
2018-11-14T01:22:08.270Z,5.87
2018-11-14T01:24:36.372Z,10.15
2018-11-14T01:27:04.476Z,18.77
2018-11-14T01:29:32.559Z,9.60
2018-11-14T01:32:00.723Z,10.85
2018-11-14T01:34:28.807Z,5.22
2018-11-14T01:36:56.895Z,7.15
2018-11-14T01:39:24.959Z,6.60
2018-11-14T01:41:53.043Z,10.35
2018-11-14T01:44:21.128Z,6.35
2018-11-14T01:46:49.244Z,8.38
2018-11-14T01:49:17.350Z,5.90
2018-11-14T01:51:45.424Z,12.78
2018-11-14T01:54:13.506Z,7.62
2018-11-14T01:56:41.580Z,13.15
2018-11-14T01:59:09.668Z,10.30
2018-11-14T02:01:37.768Z,7.67
2018-11-14T02:04:05.847Z,7.83
2018-11-14T02:06:33.947Z,9.98
2018-11-14T02:09:02.053Z,6.08
2018-11-14T02:11:30.173Z,10.13
2018-11-14T02:13:58.243Z,6.30
2018-11-14T02:16:26.328Z,7.22
2018-11-14T02:18:54.451Z,10.28
2018-11-14T02:21:22.531Z,6.28
2018-11-14T02:23:50.640Z,7.80
2018-11-14T02:26:18.724Z,12.82
2018-11-14T02:28:46.796Z,7.80
2018-11-14T02:31:14.889Z,7.50
2018-11-14T02:33:43.189Z,10.60
2018-11-14T02:36:11.275Z,10.78
2018-11-14T02:38:39.379Z,9.60
2018-11-14T02:41:07.459Z,11.35
2018-11-14T02:43:35.540Z,13.22
2018-11-14T02:46:03.651Z,12.37
2018-11-14T02:48:31.707Z,8.63
2018-11-14T02:51:16.041Z,10.88
2018-11-14T02:53:44.232Z,11.43
2018-11-14T02:56:12.372Z,10.03
2018-11-14T02:58:40.455Z,9.33
2018-11-14T03:01:08.803Z,10.65
2018-11-14T03:03:36.901Z,15.58
2018-11-14T03:06:05.204Z,12.65
2018-11-14T03:08:33.600Z,10.08
2018-11-14T03:11:01.721Z,12.53
2018-11-14T03:13:29.804Z,11.78
2018-11-14T03:15:57.891Z,12.53
2018-11-14T03:18:25.983Z,9.35
2018-11-14T03:20:54.091Z,9.38
2018-11-14T03:23:22.192Z,9.85
2018-11-14T03:25:50.505Z,10.90
2018-11-14T03:28:18.635Z,12.70
2018-11-14T03:30:46.725Z,10.30
2018-11-14T03:33:14.824Z,11.28
2018-11-14T03:35:48.229Z,9.10
2018-11-14T03:38:16.316Z,11.53
2018-11-14T03:40:44.404Z,8.43
2018-11-14T03:43:12.508Z,7.37
2018-11-14T03:45:40.584Z,9.28
2018-11-14T03:48:08.685Z,9.98
2018-11-14T03:50:36.757Z,9.18
2018-11-14T03:53:05.196Z,8.68
2018-11-14T03:55:33.309Z,7.75
2018-11-14T03:58:01.558Z,10.50
2018-11-14T04:00:29.595Z,14.68
2018-11-14T04:02:57.707Z,12.07
2018-11-14T04:05:25.907Z,11.45
2018-11-14T04:07:54.839Z,16.40
2018-11-14T04:10:23.103Z,21.07
2018-11-14T04:12:51.179Z,22.15
2018-11-14T04:15:19.281Z,38.63
2018-11-14T04:17:47.376Z,23.00
2018-11-14T04:20:16.624Z,31.20
2018-11-14T04:22:45.154Z,31.37
2018-11-14T04:25:15.059Z,35.20
2018-11-14T04:27:44.075Z,40.45
2018-11-14T04:30:14.273Z,41.28
2018-11-14T04:32:43.000Z,59.13
2018-11-14T04:35:12.488Z,70.08
2018-11-14T04:37:40.584Z,38.13
2018-11-14T04:40:10.785Z,41.85
2018-11-14T04:42:39.131Z,35.45
2018-11-14T04:45:09.776Z,51.63
2018-11-14T04:47:37.875Z,30.23
2018-11-14T04:50:07.896Z,42.48
2018-11-14T04:52:36.636Z,23.62
2018-11-14T04:55:05.257Z,34.05
2018-11-14T04:57:33.348Z,37.05
2018-11-14T05:00:01.472Z,62.58
2018-11-14T05:02:29.602Z,38.95
2018-11-14T05:04:57.675Z,61.25
2018-11-14T05:07:25.740Z,43.70
2018-11-14T05:09:53.837Z,62.38
2018-11-14T05:12:21.915Z,44.60
2018-11-14T05:14:50.015Z,64.22
2018-11-14T05:17:18.101Z,46.33
2018-11-14T05:19:46.227Z,49.95
2018-11-14T05:22:14.969Z,36.93
2018-11-14T05:24:43.221Z,75.17
2018-11-14T05:27:11.200Z,59.58
2018-11-14T05:29:39.555Z,40.65
2018-11-14T05:32:07.666Z,38.45
2018-11-14T05:34:35.820Z,45.25
2018-11-14T05:37:03.919Z,77.72
2018-11-14T05:39:32.015Z,40.55
2018-11-14T05:42:00.092Z,59.75
2018-11-14T05:44:28.180Z,46.35
2018-11-14T05:46:56.704Z,42.20
2018-11-14T05:49:24.815Z,52.38
2018-11-14T05:51:52.895Z,66.67
2018-11-14T05:54:20.967Z,64.80
2018-11-14T05:56:49.115Z,69.62
2018-11-14T05:59:17.275Z,72.55
2018-11-14T06:01:46.011Z,53.10
2018-11-14T06:04:14.334Z,45.95
2018-11-14T06:06:42.427Z,111.75
2018-11-14T06:09:12.317Z,71.28
2018-11-14T06:11:40.415Z,55.98
2018-11-14T06:14:08.563Z,46.30
2018-11-14T06:16:36.755Z,41.23
2018-11-14T06:19:04.953Z,58.42
2018-11-14T06:21:33.399Z,54.20
2018-11-14T06:24:01.493Z,65.10
2018-11-14T06:26:29.611Z,53.10
2018-11-14T06:28:57.705Z,86.82
2018-11-14T06:31:25.814Z,35.90
2018-11-14T06:33:53.891Z,70.72
2018-11-14T06:36:22.021Z,60.52
2018-11-14T06:38:50.088Z,80.97
2018-11-14T06:41:18.237Z,92.62
2018-11-14T06:43:46.351Z,39.88
2018-11-14T06:46:14.525Z,116.97
2018-11-14T06:48:42.651Z,31.70
2018-11-14T06:51:10.760Z,54.93
2018-11-14T06:53:38.842Z,41.90
2018-11-14T06:56:07.001Z,46.60
2018-11-14T06:58:35.187Z,127.32
2018-11-14T07:01:03.391Z,108.75
2018-11-14T07:03:31.593Z,56.50
2018-11-14T07:05:59.727Z,72.10
2018-11-14T07:08:27.747Z,59.85
2018-11-14T07:10:55.867Z,56.73
2018-11-14T07:13:23.959Z,100.70
2018-11-14T07:15:52.094Z,61.08
2018-11-14T07:18:20.191Z,51.98
2018-11-14T07:20:48.354Z,43.42
2018-11-14T07:23:16.442Z,49.25
2018-11-14T07:25:44.552Z,59.10
2018-11-14T07:28:12.673Z,42.45
2018-11-14T07:30:40.759Z,46.40
2018-11-14T07:33:09.991Z,60.52
2018-11-14T07:35:38.108Z,55.38
2018-11-14T07:38:41.034Z,46.45
2018-11-14T07:41:10.884Z,70.57
2018-11-14T07:43:39.483Z,70.70
2018-11-14T07:46:08.052Z,44.18
2018-11-14T07:48:36.427Z,40.50
2018-11-14T07:51:04.647Z,53.28
2018-11-14T07:53:33.178Z,54.93
2018-11-14T07:56:01.318Z,53.70
2018-11-14T07:58:29.430Z,42.50
2018-11-14T08:00:57.583Z,41.77
2018-11-14T08:03:27.079Z,51.80
2018-11-14T08:05:55.592Z,53.98
2018-11-14T08:08:23.810Z,61.80
2018-11-14T08:10:51.929Z,104.30
2018-11-14T08:13:23.161Z,111.12
2018-11-14T08:15:52.993Z,68.78
2018-11-14T08:18:21.812Z,75.62
2018-11-14T08:20:50.113Z,92.20
2018-11-14T08:23:24.861Z,122.92
2018-11-14T08:25:52.963Z,132.37
2018-11-14T08:28:21.071Z,63.28
2018-11-14T08:30:49.256Z,54.63
2018-11-14T08:33:17.419Z,82.95
2018-11-14T08:35:45.556Z,86.45
2018-11-14T08:38:13.902Z,96.92
2018-11-14T08:40:42.000Z,97.53
2018-11-14T08:43:10.310Z,69.72
2018-11-14T08:45:38.473Z,62.25
2018-11-14T08:48:07.088Z,66.37
2018-11-14T08:50:35.159Z,68.55
2018-11-14T08:53:03.412Z,63.90
2018-11-14T08:55:31.538Z,85.07
2018-11-14T08:57:59.675Z,61.55
2018-11-14T09:00:28.409Z,54.70
2018-11-14T09:02:56.532Z,81.45
2018-11-14T09:05:24.612Z,66.57
2018-11-14T09:07:52.793Z,55.10
2018-11-14T09:10:24.699Z,60.95
2018-11-14T09:12:52.853Z,45.00
2018-11-14T09:15:22.106Z,54.23
2018-11-14T09:17:50.366Z,45.85
2018-11-14T09:20:20.708Z,69.32
2018-11-14T09:22:48.859Z,59.60
2018-11-14T09:25:22.512Z,58.45
2018-11-14T09:27:50.679Z,52.10
2018-11-14T09:30:19.940Z,49.48
2018-11-14T09:32:49.168Z,56.83
2018-11-14T09:35:18.436Z,51.63
2018-11-14T09:37:46.676Z,58.85
2018-11-14T09:40:16.355Z,47.13
2018-11-14T09:42:44.467Z,67.78
2018-11-14T09:45:14.903Z,59.83
2018-11-14T09:47:43.047Z,48.73
2018-11-14T09:50:15.443Z,45.28
2018-11-14T09:52:44.629Z,48.60
2018-11-14T09:55:13.021Z,51.42
2018-11-14T09:57:41.834Z,67.62
2018-11-14T10:00:11.768Z,54.20
2018-11-14T10:02:40.298Z,60.52
2018-11-14T10:05:10.641Z,57.78
2018-11-14T10:07:39.438Z,55.38
2018-11-14T10:10:08.708Z,69.92
2018-11-14T10:12:37.689Z,66.30
2018-11-14T10:15:07.757Z,65.15
2018-11-14T10:17:36.291Z,60.38
2018-11-14T10:20:04.850Z,69.62
2018-11-14T10:22:33.035Z,68.05
2018-11-14T10:25:02.144Z,65.80
2018-11-14T10:27:30.228Z,73.37
2018-11-14T10:29:58.447Z,71.28
2018-11-14T10:32:26.583Z,76.20
2018-11-14T10:34:54.744Z,73.75
2018-11-14T10:37:22.859Z,61.65
2018-11-14T10:39:51.032Z,72.75
2018-11-14T10:42:19.128Z,68.57
2018-11-14T10:44:47.219Z,73.50
2018-11-14T10:47:15.309Z,66.07
2018-11-14T10:49:44.591Z,64.55
2018-11-14T10:52:12.685Z,67.20
2018-11-14T10:54:40.786Z,64.55
2018-11-14T10:57:08.900Z,69.03
2018-11-14T10:59:37.140Z,66.20
2018-11-14T11:02:11.060Z,54.80
2018-11-14T11:04:44.423Z,53.33
2018-11-14T11:07:17.740Z,61.10
2018-11-14T11:12:44.318Z,54.60
2018-11-14T11:15:18.356Z,65.32
2018-11-14T11:17:52.776Z,58.10
2018-11-14T11:20:20.888Z,61.20
2018-11-14T11:22:48.978Z,66.65
2018-11-14T11:25:17.291Z,62.53
2018-11-14T11:27:45.387Z,62.00
2018-11-14T11:30:13.496Z,53.25
2018-11-14T11:32:41.643Z,58.87
2018-11-14T11:35:09.711Z,61.28
2018-11-14T11:37:37.805Z,64.58
2018-11-14T11:40:06.688Z,59.40
2018-11-14T11:42:34.780Z,58.05
2018-11-14T11:45:02.880Z,50.28
2018-11-14T11:47:31.052Z,58.45
2018-11-14T11:49:59.220Z,57.95
2018-11-14T11:52:28.112Z,56.13
2018-11-14T11:54:56.247Z,48.70
2018-11-14T11:57:24.408Z,48.30
2018-11-14T11:59:52.696Z,52.75
2018-11-14T12:02:20.839Z,48.00
2018-11-14T12:04:48.901Z,45.90
2018-11-14T12:07:17.023Z,41.80
2018-11-14T12:09:45.240Z,41.77
2018-11-14T12:12:13.339Z,42.50
2018-11-14T12:14:41.428Z,40.80
2018-11-14T12:17:09.575Z,39.40
2018-11-14T12:19:37.920Z,40.78
2018-11-14T12:22:06.047Z,39.15
2018-11-14T12:24:34.129Z,41.98
2018-11-14T12:27:02.234Z,38.23
2018-11-14T12:29:31.187Z,43.75
2018-11-14T12:31:59.295Z,40.10
2018-11-14T12:34:27.876Z,41.42
2018-11-14T12:36:56.015Z,41.33
2018-11-14T12:39:24.137Z,41.48
2018-11-14T12:41:52.223Z,34.80
2018-11-14T12:44:20.359Z,36.63
2018-11-14T12:46:48.490Z,34.67
2018-11-14T12:49:16.640Z,34.03
2018-11-14T12:51:44.788Z,34.95
2018-11-14T12:54:12.919Z,30.77
2018-11-14T12:56:41.039Z,35.05
2018-11-14T12:59:09.160Z,27.13
2018-11-14T13:01:37.296Z,31.12
2018-11-14T13:04:05.560Z,29.92
2018-11-14T13:06:33.665Z,29.87
2018-11-14T13:09:01.796Z,26.87
2018-11-14T13:11:29.921Z,31.20
2018-11-14T13:13:58.032Z,27.22
2018-11-14T13:16:26.160Z,24.45
2018-11-14T13:18:54.936Z,29.95
2018-11-14T13:21:23.176Z,23.80
2018-11-14T13:23:51.391Z,29.35
2018-11-14T13:29:00.443Z,27.32
2018-11-14T13:31:28.469Z,30.02
2018-11-14T13:33:56.567Z,34.20
2018-11-14T13:36:24.955Z,31.97
2018-11-14T13:38:53.042Z,26.42
2018-11-14T13:41:21.133Z,23.27
2018-11-14T13:43:50.027Z,30.75
2018-11-14T13:46:18.092Z,28.65
2018-11-14T13:48:46.458Z,28.32
2018-11-14T13:51:14.720Z,24.85
2018-11-14T13:53:42.678Z,21.90
2018-11-14T13:56:10.736Z,26.15
2018-11-14T13:58:38.840Z,29.30
2018-11-14T14:01:07.014Z,26.65
2018-11-14T14:03:35.131Z,26.87
2018-11-14T14:06:03.235Z,30.32
2018-11-14T14:08:31.369Z,25.15
2018-11-14T14:10:59.431Z,27.10
2018-11-14T14:13:27.532Z,28.65
2018-11-14T14:15:55.948Z,27.52
2018-11-14T14:18:24.052Z,25.75
2018-11-14T14:20:52.375Z,28.57
2018-11-14T14:23:20.486Z,23.07
2018-11-14T14:25:48.576Z,25.70
2018-11-14T14:28:16.691Z,30.50
2018-11-14T14:30:45.990Z,27.60
2018-11-14T14:33:14.037Z,27.30
2018-11-14T14:35:42.134Z,26.87
2018-11-14T14:38:10.295Z,29.10
2018-11-14T14:40:38.394Z,27.95
2018-11-14T14:43:06.489Z,27.93
2018-11-14T14:45:34.612Z,30.23
2018-11-14T14:48:02.815Z,27.07
2018-11-14T14:50:30.956Z,29.82
2018-11-14T14:52:59.130Z,25.15
2018-11-14T14:55:27.255Z,26.35
2018-11-14T14:57:55.356Z,30.12
2018-11-14T15:00:24.768Z,33.10
2018-11-14T15:02:52.859Z,32.65
2018-11-14T15:05:20.960Z,34.65
2018-11-14T15:07:49.048Z,26.68
2018-11-14T15:10:18.322Z,26.95
2018-11-14T15:12:46.672Z,30.08
2018-11-14T15:15:15.239Z,31.00
2018-11-14T15:17:44.020Z,29.30
2018-11-14T15:20:14.644Z,28.85
2018-11-14T15:22:42.947Z,26.35
2018-11-14T15:25:12.655Z,29.55
2018-11-14T15:27:41.636Z,28.38
2018-11-14T15:30:13.875Z,30.62
2018-11-14T15:32:42.203Z,28.83
2018-11-14T15:35:11.589Z,31.15
2018-11-14T15:37:39.792Z,52.20
2018-11-14T15:40:10.044Z,32.65
2018-11-14T15:42:38.678Z,30.75
2018-11-14T15:45:09.845Z,27.45
2018-11-14T15:47:38.556Z,30.40
2018-11-14T15:50:09.104Z,32.85
2018-11-14T15:52:37.216Z,35.63
2018-11-14T15:55:06.507Z,35.38
2018-11-14T15:57:34.911Z,30.90
2018-11-14T16:00:03.009Z,35.25
2018-11-14T16:02:31.132Z,33.28
2018-11-14T16:04:59.284Z,36.55
2018-11-14T16:07:27.406Z,37.13
2018-11-14T16:09:55.495Z,35.92
2018-11-14T16:12:23.635Z,37.08
2018-11-14T16:14:51.693Z,34.70
2018-11-14T16:17:19.780Z,34.13
2018-11-14T16:19:47.876Z,31.68
2018-11-14T16:22:15.979Z,33.73
2018-11-14T16:24:44.128Z,34.95
2018-11-14T16:27:12.416Z,33.75
2018-11-14T16:29:40.615Z,37.53
2018-11-14T16:32:08.711Z,24.18
2018-11-14T16:34:36.804Z,18.23
2018-11-14T16:37:04.924Z,17.70
2018-11-14T16:39:33.004Z,19.85
2018-11-14T16:42:01.119Z,14.23
2018-11-14T16:44:29.289Z,13.10
2018-11-14T16:46:57.377Z,12.20
2018-11-14T16:49:25.462Z,11.45
2018-11-14T16:51:53.630Z,11.57
2018-11-14T16:54:21.772Z,10.45
2018-11-14T16:56:49.855Z,11.25
2018-11-14T16:59:17.986Z,9.33
2018-11-14T17:01:46.111Z,12.25
2018-11-14T17:04:14.211Z,12.85
2018-11-14T17:06:42.323Z,14.80
2018-11-14T17:09:12.096Z,14.98
2018-11-14T17:11:40.264Z,17.57
2018-11-14T17:14:08.740Z,18.87
2018-11-14T17:16:37.052Z,14.13
2018-11-14T17:19:05.791Z,14.55
2018-11-14T17:21:34.527Z,17.15
2018-11-14T17:24:02.892Z,18.67
2018-11-14T17:26:31.244Z,17.23
2018-11-14T17:28:59.336Z,14.98
2018-11-14T17:31:27.471Z,19.25
2018-11-14T17:33:55.591Z,15.78
2018-11-14T17:36:23.674Z,20.32
2018-11-14T17:38:51.759Z,21.15
2018-11-14T17:41:19.881Z,16.00
2018-11-14T17:43:47.978Z,19.17
2018-11-14T17:46:16.353Z,18.20
2018-11-14T17:48:44.460Z,20.62
2018-11-14T17:51:12.604Z,15.25
2018-11-14T17:53:40.712Z,18.10
2018-11-14T17:56:08.829Z,16.35
2018-11-14T17:58:37.014Z,16.87
2018-11-14T18:01:05.348Z,16.37
2018-11-14T18:03:33.434Z,17.35
2018-11-14T18:06:01.518Z,15.15
2018-11-14T18:08:29.622Z,20.05
2018-11-14T18:10:57.749Z,16.97
2018-11-14T18:13:25.890Z,19.37
2018-11-14T18:15:54.023Z,19.95
2018-11-14T18:18:22.225Z,18.12
2018-11-14T18:20:50.371Z,19.20
2018-11-14T18:23:18.480Z,20.12
2018-11-14T18:25:46.599Z,23.38
2018-11-14T18:28:14.735Z,18.95
2018-11-14T18:30:42.923Z,18.30
2018-11-14T18:33:10.968Z,20.45
2018-11-14T18:35:39.143Z,21.17
2018-11-14T18:38:07.293Z,17.98
2018-11-14T18:40:35.817Z,16.82
2018-11-14T18:43:04.432Z,16.85
2018-11-14T18:45:33.903Z,22.58
2018-11-14T18:48:02.495Z,19.85
2018-11-14T18:50:30.714Z,20.00
2018-11-14T18:52:58.796Z,19.95
2018-11-14T18:55:31.144Z,18.62
2018-11-14T18:57:59.939Z,22.77
2018-11-14T19:00:29.220Z,20.50
2018-11-14T19:02:57.561Z,25.90
2018-11-14T19:05:25.640Z,25.25
2018-11-14T19:07:53.739Z,25.37
2018-11-14T19:10:23.134Z,21.77
2018-11-14T19:12:51.840Z,23.45
2018-11-14T19:15:35.410Z,24.23
2018-11-14T19:18:04.140Z,28.35
2018-11-14T19:20:34.188Z,26.27
2018-11-14T19:23:02.972Z,24.52
2018-11-14T19:25:33.420Z,26.33
2018-11-14T19:28:01.587Z,28.20
2018-11-14T19:30:32.516Z,22.67
2018-11-14T19:33:15.921Z,27.15
2018-11-14T19:35:47.994Z,33.70
2018-11-14T19:38:26.114Z,32.13
2018-11-14T19:40:56.961Z,28.02
2018-11-14T19:43:28.225Z,28.70
2018-11-14T19:46:07.385Z,29.05
2018-11-14T19:48:39.799Z,26.20
2018-11-14T19:51:21.211Z,27.82
2018-11-14T19:53:57.027Z,32.67
2018-11-14T19:56:33.308Z,29.57
2018-11-14T19:59:06.218Z,31.55
2018-11-14T20:01:35.826Z,29.82
2018-11-14T20:04:05.983Z,25.48
2018-11-14T20:06:45.961Z,32.33
2018-11-14T20:09:15.291Z,30.02
2018-11-14T20:11:45.782Z,25.27
2018-11-14T20:14:23.321Z,29.92
2018-11-14T20:16:57.878Z,27.80
2018-11-14T20:19:28.383Z,33.80
2018-11-14T20:22:05.403Z,30.15
2018-11-14T20:24:43.277Z,34.40
2018-11-14T20:27:20.804Z,26.48
2018-11-14T20:29:56.821Z,26.33
2018-11-14T20:32:34.980Z,33.28
2018-11-14T20:35:10.174Z,29.18
2018-11-14T20:37:45.506Z,29.70
2018-11-14T20:40:20.166Z,28.15
2018-11-14T20:42:55.472Z,30.88
2018-11-14T20:45:29.677Z,27.80
2018-11-14T20:48:01.744Z,29.70
2018-11-14T20:50:36.371Z,27.98
2018-11-14T20:53:06.995Z,30.00
2018-11-14T20:55:39.943Z,34.58
2018-11-14T20:58:10.444Z,28.23
2018-11-14T21:00:42.623Z,29.25
2018-11-14T21:03:14.249Z,27.70
2018-11-14T21:05:47.929Z,26.90
2018-11-14T21:08:19.534Z,26.25
2018-11-14T21:10:53.993Z,29.70
2018-11-14T21:13:40.219Z,29.32
2018-11-14T21:16:21.040Z,28.30
2018-11-14T21:18:53.557Z,27.67
2018-11-14T21:21:23.309Z,25.68
2018-11-14T21:23:51.458Z,25.95
2018-11-14T21:26:23.225Z,30.60
2018-11-14T21:28:54.257Z,26.85
2018-11-14T21:31:31.490Z,28.52
2018-11-14T21:34:02.052Z,23.90
2018-11-14T21:36:35.613Z,27.87
2018-11-14T21:39:10.573Z,28.50
2018-11-14T21:41:40.242Z,27.73
2018-11-14T21:44:12.317Z,26.93
2018-11-14T21:46:46.483Z,27.22
2018-11-14T21:49:21.816Z,27.93
2018-11-14T21:51:58.717Z,34.75
2018-11-14T21:54:29.830Z,28.10
2018-11-14T21:57:05.034Z,30.02
2018-11-14T21:59:44.513Z,30.48
2018-11-14T22:02:17.588Z,29.12
2018-11-14T22:04:48.208Z,27.77
2018-11-14T22:07:26.547Z,30.12
2018-11-14T22:10:01.638Z,26.48
2018-11-14T22:15:27.192Z,34.40
2018-11-14T22:17:57.739Z,25.27
2018-11-14T22:20:30.874Z,26.15
2018-11-14T22:23:01.323Z,34.92
2018-11-14T22:25:36.232Z,31.52
2018-11-14T22:28:10.761Z,30.90
2018-11-14T22:30:45.140Z,32.35
2018-11-14T22:33:21.330Z,30.37
2018-11-14T22:35:53.575Z,29.52
2018-11-14T22:38:31.503Z,31.68
2018-11-14T22:40:59.631Z,32.00
2018-11-14T22:43:27.706Z,30.20
2018-11-14T22:45:55.808Z,31.37
2018-11-14T22:48:24.230Z,31.52
2018-11-14T22:50:52.335Z,33.55
2018-11-14T22:53:21.247Z,27.52
2018-11-14T22:55:49.951Z,26.27
2018-11-14T22:58:18.050Z,28.15
2018-11-14T23:00:46.734Z,25.52
2018-11-14T23:03:15.796Z,29.18
2018-11-14T23:05:47.801Z,31.97
2018-11-14T23:08:19.869Z,24.67
2018-11-14T23:10:57.177Z,27.50
2018-11-14T23:13:30.217Z,31.65
2018-11-14T23:16:01.075Z,28.15
2018-11-14T23:18:30.711Z,25.95
2018-11-14T23:34:56.195Z,24.85
2018-11-14T23:37:25.510Z,26.87
2018-11-14T23:39:54.686Z,27.05
2018-11-14T23:42:24.286Z,27.75
2018-11-14T23:44:58.889Z,26.05
2018-11-14T23:47:32.004Z,28.90
2018-11-14T23:50:00.789Z,26.40
2018-11-14T23:52:37.026Z,22.65
2018-11-14T23:55:09.846Z,25.60
2018-11-14T23:57:38.427Z,26.82
